createdAt,value
2023-01-21T00:01:05.917Z,89658.22
2023-01-21T00:03:32.974Z,89665.53
2023-01-21T00:05:59.904Z,89661.88
2023-01-21T00:08:27.533Z,89664.56
2023-01-21T00:10:54.565Z,89669.09
2023-01-21T00:13:22.122Z,89669.72
2023-01-21T00:15:49.027Z,89681.63
2023-01-21T00:18:16.053Z,89678.81
2023-01-21T00:20:42.827Z,89681.03
2023-01-21T00:23:09.720Z,89680.88
2023-01-21T00:25:36.506Z,89679.41
2023-01-21T00:28:03.625Z,89685.72
2023-01-21T00:30:30.599Z,89685.31
2023-01-21T00:32:57.637Z,89685.31
2023-01-21T00:35:24.569Z,89692.69
2023-01-21T00:37:52.004Z,89693.53
2023-01-21T00:40:19.200Z,89697.88
2023-01-21T00:42:46.334Z,89690.88
2023-01-21T00:45:13.398Z,89688.25
2023-01-21T00:47:40.605Z,89690.63
2023-01-21T00:50:08.109Z,89700.38
2023-01-21T00:52:34.965Z,89691.44
2023-01-21T00:55:01.842Z,89697.03
2023-01-21T00:57:28.854Z,89698.81
2023-01-21T00:59:56.040Z,89692.34
2023-01-21T01:02:22.924Z,89691.91
2023-01-21T01:04:49.926Z,89690.59
2023-01-21T01:07:16.860Z,89686.47
2023-01-21T01:09:43.723Z,89702.47
2023-01-21T01:12:10.599Z,89698.66
2023-01-21T01:14:37.540Z,89702.16
2023-01-21T01:17:04.432Z,89706.22
2023-01-21T01:19:31.309Z,89700.81
2023-01-21T01:21:58.143Z,89703.41
2023-01-21T01:24:25.087Z,89707.25
2023-01-21T01:26:51.956Z,89707.06
2023-01-21T01:29:18.882Z,89709.47
2023-01-21T01:31:45.834Z,89705.34
2023-01-21T01:34:12.737Z,89714.75
2023-01-21T01:36:39.752Z,89721.66
2023-01-21T01:39:06.639Z,89716.28
2023-01-21T01:41:34.060Z,89717.88
2023-01-21T01:44:03.383Z,89717.59
2023-01-21T01:46:33.413Z,89720.13
2023-01-21T01:49:32.602Z,89724.09
2023-01-21T01:52:03.294Z,89717.72
2023-01-21T01:54:52.109Z,89728.91
2023-01-21T01:57:22.462Z,89741.03
2023-01-21T01:59:50.532Z,89734.31
2023-01-21T02:02:20.130Z,89735.84
2023-01-21T02:05:00.395Z,89728.38
2023-01-21T02:07:30.454Z,89732.38
2023-01-21T02:09:57.345Z,89727.34
2023-01-21T02:12:24.863Z,89731.47
2023-01-21T02:14:51.864Z,89739.13
2023-01-21T02:17:27.482Z,89745.84
2023-01-21T02:20:06.122Z,89746.00
2023-01-21T02:22:56.893Z,89750.38
2023-01-21T02:26:04.160Z,89752.22
2023-01-21T02:28:57.802Z,89743.19
2023-01-21T02:31:30.311Z,89748.94
2023-01-21T02:34:15.380Z,89753.22
2023-01-21T02:36:45.041Z,89754.31
2023-01-21T02:39:31.042Z,89751.75
2023-01-21T02:42:17.532Z,89743.03
2023-01-21T02:44:57.237Z,89745.47
2023-01-21T02:47:33.538Z,89741.53
2023-01-21T02:50:08.995Z,89739.78
2023-01-21T02:52:36.004Z,89749.56
2023-01-21T02:55:03.992Z,89745.53
2023-01-21T02:57:40.055Z,89736.09
2023-01-21T03:00:13.437Z,89748.44
2023-01-21T03:03:01.931Z,89746.41
2023-01-21T03:05:44.657Z,89747.84
2023-01-21T03:08:36.676Z,89746.78
2023-01-21T03:11:18.786Z,89751.19
2023-01-21T03:13:45.866Z,89743.88
2023-01-21T03:16:16.997Z,89750.00
2023-01-21T03:18:49.328Z,89757.44
2023-01-21T03:21:22.078Z,89760.09
2023-01-21T03:23:51.652Z,89757.94
2023-01-21T03:26:24.793Z,89762.41
2023-01-21T03:28:56.241Z,89754.25
2023-01-21T03:31:29.916Z,89759.31
2023-01-21T03:34:00.310Z,89768.94
2023-01-21T03:36:41.602Z,89769.88
2023-01-21T03:39:21.454Z,89776.75
2023-01-21T03:41:48.566Z,89766.06
2023-01-21T03:44:15.570Z,89778.31
2023-01-21T03:47:06.921Z,89779.25
2023-01-21T03:49:58.667Z,89780.03
2023-01-21T03:52:26.826Z,89789.25
2023-01-21T03:54:54.405Z,89783.44
2023-01-21T03:57:21.378Z,89780.97
2023-01-21T03:59:48.237Z,89781.78
2023-01-21T04:02:15.303Z,89790.56
2023-01-21T04:04:42.271Z,89787.38
2023-01-21T04:07:09.668Z,89786.06
2023-01-21T04:09:36.490Z,89786.72
2023-01-21T04:12:03.545Z,89791.31
2023-01-21T04:14:30.451Z,89804.59
2023-01-21T04:16:57.358Z,89800.34
2023-01-21T04:19:24.326Z,89809.53
2023-01-21T04:21:51.261Z,89814.66
2023-01-21T04:24:18.114Z,89816.81
2023-01-21T04:26:45.022Z,89827.59
2023-01-21T04:29:12.016Z,89817.84
2023-01-21T04:31:38.935Z,89821.16
2023-01-21T04:34:05.856Z,89819.97
2023-01-21T04:36:32.714Z,89831.03
2023-01-21T04:38:59.520Z,89829.56
2023-01-21T04:41:26.619Z,89836.47
2023-01-21T04:43:53.517Z,89837.28
2023-01-21T04:46:20.502Z,89833.81
2023-01-21T04:48:47.545Z,89835.81
2023-01-21T04:51:14.473Z,89843.22
2023-01-21T04:53:41.443Z,89845.00
2023-01-21T04:56:08.544Z,89840.91
2023-01-21T04:58:35.432Z,89856.25
2023-01-21T05:01:02.551Z,89865.47
2023-01-21T05:03:29.561Z,89864.03
2023-01-21T05:05:56.503Z,89866.41
2023-01-21T05:08:23.401Z,89865.19
2023-01-21T05:10:50.226Z,89876.34
2023-01-21T05:13:17.180Z,89872.66
2023-01-21T05:15:44.147Z,89880.31
2023-01-21T05:18:11.195Z,89879.50
2023-01-21T05:20:38.077Z,89881.03
2023-01-21T05:23:04.925Z,89880.03
2023-01-21T05:25:31.823Z,89882.31
2023-01-21T05:27:58.723Z,89884.47
2023-01-21T05:30:25.740Z,89888.13
2023-01-21T05:32:54.016Z,89884.13
2023-01-21T05:35:22.855Z,89884.31
2023-01-21T05:37:50.135Z,89874.00
2023-01-21T05:40:18.431Z,89879.38
2023-01-21T05:42:46.696Z,89883.91
2023-01-21T05:45:14.285Z,89894.59
2023-01-21T05:47:41.557Z,89898.88
2023-01-21T05:50:09.492Z,89894.06
2023-01-21T05:52:39.437Z,89889.72
2023-01-21T05:55:07.266Z,89901.53
2023-01-21T05:57:34.392Z,89891.81
2023-01-21T06:00:01.240Z,89904.97
2023-01-21T06:02:28.271Z,89901.66
2023-01-21T06:04:55.224Z,89900.91
2023-01-21T06:07:22.099Z,89907.31
2023-01-21T06:09:48.919Z,89913.84
2023-01-21T06:12:15.845Z,89911.00
2023-01-21T06:14:42.785Z,89910.78
2023-01-21T06:17:09.698Z,89908.06
2023-01-21T06:19:36.614Z,89912.84
2023-01-21T06:22:03.486Z,89918.91
2023-01-21T06:24:30.448Z,89922.97
2023-01-21T06:26:57.325Z,89926.78
2023-01-21T06:29:24.356Z,89926.09
2023-01-21T06:31:51.388Z,89928.25
2023-01-21T06:34:18.338Z,89932.91
2023-01-21T06:36:45.200Z,89929.69
2023-01-21T06:39:12.215Z,89936.53
2023-01-21T06:41:39.077Z,89935.81
2023-01-21T06:44:06.475Z,89942.97
2023-01-21T06:46:33.500Z,89945.72
2023-01-21T06:49:00.561Z,89934.66
2023-01-21T06:51:27.488Z,89930.91
2023-01-21T06:53:54.740Z,89933.84
2023-01-21T06:56:22.473Z,89935.41
2023-01-21T06:58:49.432Z,89947.69
2023-01-21T07:01:16.290Z,89946.97
2023-01-21T07:03:43.369Z,89948.78
2023-01-21T07:06:10.388Z,89948.91
2023-01-21T07:08:37.381Z,89936.94
2023-01-21T07:11:04.575Z,89946.00
2023-01-21T07:13:31.352Z,89942.22
2023-01-21T07:16:02.170Z,89948.91
2023-01-21T07:18:29.159Z,89951.47
2023-01-21T07:20:56.885Z,89945.75
2023-01-21T07:23:24.158Z,89945.03
2023-01-21T07:25:51.493Z,89950.75
2023-01-21T07:28:18.416Z,89955.78
2023-01-21T07:30:45.726Z,89952.47
2023-01-21T07:33:12.609Z,89948.19
2023-01-21T07:35:39.498Z,89954.16
2023-01-21T07:38:06.455Z,89952.84
2023-01-21T07:40:33.540Z,89952.63
2023-01-21T07:43:00.486Z,89958.44
2023-01-21T07:45:27.533Z,89955.06
2023-01-21T07:47:54.618Z,89968.47
2023-01-21T07:50:21.489Z,89961.97
2023-01-21T07:52:48.496Z,89954.44
2023-01-21T07:55:16.661Z,89956.38
2023-01-21T07:57:43.849Z,89958.63
2023-01-21T08:00:11.461Z,89955.28
2023-01-21T08:02:38.954Z,89960.75
2023-01-21T08:05:07.198Z,89957.38
2023-01-21T08:07:34.138Z,89958.09
2023-01-21T08:10:01.435Z,89948.38
2023-01-21T08:12:28.727Z,89947.81
2023-01-21T08:14:55.567Z,89944.28
2023-01-21T08:17:22.532Z,89953.41
2023-01-21T08:19:49.371Z,89952.56
2023-01-21T08:22:16.347Z,89948.13
2023-01-21T08:24:43.300Z,89951.63
2023-01-21T08:27:10.140Z,89949.13
2023-01-21T08:29:37.053Z,89948.50
2023-01-21T08:32:04.073Z,89947.19
2023-01-21T08:34:30.981Z,89952.44
2023-01-21T08:36:57.816Z,89946.22
2023-01-21T08:39:24.628Z,89940.06
2023-01-21T08:41:51.482Z,89942.34
2023-01-21T08:44:18.352Z,89944.38
2023-01-21T08:46:45.241Z,89940.59
2023-01-21T08:49:12.135Z,89941.09
2023-01-21T08:51:39.078Z,89938.72
2023-01-21T08:54:05.939Z,89933.81
2023-01-21T08:56:34.916Z,89925.34
2023-01-21T08:59:01.851Z,89931.88
2023-01-21T09:01:29.313Z,89914.94
2023-01-21T09:04:01.200Z,89912.78
2023-01-21T09:06:29.999Z,89914.19
2023-01-21T09:08:57.202Z,89909.06
2023-01-21T09:11:25.486Z,89910.09
2023-01-21T09:13:52.558Z,89903.91
2023-01-21T09:16:22.442Z,89904.22
2023-01-21T09:18:50.245Z,89899.44
2023-01-21T09:21:17.152Z,89888.81
2023-01-21T09:23:44.209Z,89897.28
2023-01-21T09:26:17.171Z,89898.41
2023-01-21T09:28:46.069Z,89896.44
2023-01-21T09:31:17.743Z,89891.47
2023-01-21T09:33:47.229Z,89891.53
2023-01-21T09:36:23.525Z,89890.34
2023-01-21T09:38:51.512Z,89889.78
2023-01-21T09:41:38.596Z,89885.47
2023-01-21T09:44:10.262Z,89886.84
2023-01-21T09:46:47.225Z,89882.97
2023-01-21T09:49:19.615Z,89874.84
2023-01-21T09:51:59.560Z,89877.59
2023-01-21T09:54:32.453Z,89874.66
2023-01-21T09:57:26.842Z,89865.69
2023-01-21T10:00:20.181Z,89864.91
2023-01-21T10:02:57.951Z,89862.97
2023-01-21T10:05:24.849Z,89860.22
2023-01-21T10:08:03.496Z,89862.38
2023-01-21T10:10:30.353Z,89857.78
2023-01-21T10:13:02.953Z,89849.34
2023-01-21T10:16:02.111Z,89854.66
2023-01-21T10:18:32.630Z,89849.63
2023-01-21T10:21:08.997Z,89852.34
2023-01-21T10:23:42.943Z,89844.00
2023-01-21T10:26:13.260Z,89838.22
2023-01-21T10:28:44.238Z,89842.63
2023-01-21T10:31:39.425Z,89843.19
2023-01-21T10:34:19.567Z,89841.88
2023-01-21T10:37:15.396Z,89832.97
2023-01-21T10:40:03.436Z,89840.34
2023-01-21T10:42:35.831Z,89830.94
2023-01-21T10:45:21.228Z,89835.84
2023-01-21T10:48:31.035Z,89826.94
2023-01-21T10:51:24.808Z,89825.13
2023-01-21T10:54:03.411Z,89822.88
2023-01-21T10:57:12.230Z,89816.31
2023-01-21T10:59:40.345Z,89815.03
2023-01-21T11:02:18.011Z,89819.88
2023-01-21T11:04:45.741Z,89813.78
2023-01-21T11:07:17.804Z,89816.91
2023-01-21T11:09:47.255Z,89818.31
2023-01-21T11:12:19.359Z,89810.28
2023-01-21T11:14:57.709Z,89818.38
2023-01-21T11:17:53.843Z,89801.59
2023-01-21T11:20:22.970Z,89805.47
2023-01-21T11:22:50.522Z,89801.44
2023-01-21T11:25:43.821Z,89807.00
2023-01-21T11:28:29.356Z,89804.09
2023-01-21T11:31:15.407Z,89808.41
2023-01-21T11:33:43.732Z,89802.81
2023-01-21T11:36:18.657Z,89805.75
2023-01-21T11:39:01.265Z,89802.41
2023-01-21T11:41:28.361Z,89806.06
2023-01-21T11:44:08.192Z,89805.81
2023-01-21T11:46:40.987Z,89805.81
2023-01-21T11:49:07.832Z,89805.53
2023-01-21T11:51:40.205Z,89804.31
2023-01-21T11:54:24.058Z,89805.16
2023-01-21T11:56:59.922Z,89805.94
2023-01-21T11:59:37.926Z,89810.53
2023-01-21T12:02:17.156Z,89815.59
2023-01-21T12:04:54.445Z,89811.66
2023-01-21T12:07:42.275Z,89806.44
2023-01-21T12:10:14.612Z,89798.38
2023-01-21T12:12:47.656Z,89807.91
2023-01-21T12:15:40.676Z,89806.75
2023-01-21T12:18:37.297Z,89807.88
2023-01-21T12:21:11.536Z,89803.50
2023-01-21T12:23:46.373Z,89808.22
2023-01-21T12:26:41.155Z,89814.81
2023-01-21T12:29:22.939Z,89820.09
2023-01-21T12:31:59.434Z,89816.06
2023-01-21T12:34:37.135Z,89812.91
2023-01-21T12:37:13.197Z,89816.31
2023-01-21T12:39:42.492Z,89815.81
2023-01-21T12:42:25.731Z,89818.41
2023-01-21T12:44:56.872Z,89818.16
2023-01-21T12:47:29.550Z,89823.84
2023-01-21T12:50:07.549Z,89813.56
2023-01-21T12:52:59.260Z,89824.41
2023-01-21T12:55:42.172Z,89828.94
2023-01-21T12:58:19.368Z,89818.47
2023-01-21T13:00:49.659Z,89826.28
2023-01-21T13:03:23.634Z,89817.22
2023-01-21T13:06:08.410Z,89818.03
2023-01-21T13:09:14.101Z,89825.47
2023-01-21T13:11:55.977Z,89824.97
2023-01-21T13:14:30.144Z,89826.59
2023-01-21T13:17:02.638Z,89819.31
2023-01-21T13:19:29.677Z,89827.75
2023-01-21T13:22:05.217Z,89825.91
2023-01-21T13:24:34.936Z,89826.13
2023-01-21T13:27:40.298Z,89835.97
2023-01-21T13:30:28.611Z,89827.75
2023-01-21T13:33:19.913Z,89833.66
2023-01-21T13:36:08.501Z,89835.56
2023-01-21T13:38:57.160Z,89832.50
2023-01-21T13:42:01.559Z,89832.34
2023-01-21T13:44:50.165Z,89835.50
2023-01-21T13:47:43.401Z,89829.63
2023-01-21T13:50:19.307Z,89846.50
2023-01-21T13:52:58.335Z,89835.59
2023-01-21T13:55:40.355Z,89843.03
2023-01-21T13:58:23.052Z,89837.34
2023-01-21T14:00:56.358Z,89832.75
2023-01-21T14:03:31.331Z,89836.94
2023-01-21T14:06:12.004Z,89840.88
2023-01-21T14:08:52.349Z,89840.44
2023-01-21T14:11:27.336Z,89841.72
2023-01-21T14:14:02.951Z,89845.28
2023-01-21T14:16:45.655Z,89837.38
2023-01-21T14:19:34.330Z,89831.25
2023-01-21T14:22:16.361Z,89838.66
2023-01-21T14:25:10.419Z,89843.34
2023-01-21T14:28:18.480Z,89853.34
2023-01-21T14:31:00.948Z,89846.00
2023-01-21T14:33:57.882Z,89850.03
2023-01-21T14:36:40.848Z,89853.50
2023-01-21T14:39:10.684Z,89848.84
2023-01-21T14:42:05.270Z,89854.88
2023-01-21T14:44:43.634Z,89855.91
2023-01-21T14:47:21.881Z,89850.84
2023-01-21T14:49:56.358Z,89848.06
2023-01-21T14:52:45.247Z,89851.56
2023-01-21T14:55:28.352Z,89854.34
2023-01-21T14:57:57.816Z,89862.03
2023-01-21T15:00:35.924Z,89862.63
2023-01-21T15:03:02.734Z,89868.34
2023-01-21T15:05:34.625Z,89865.75
2023-01-21T15:08:08.246Z,89860.22
2023-01-21T15:10:40.818Z,89870.44
2023-01-21T15:13:34.256Z,89873.09
2023-01-21T15:16:31.719Z,89872.97
2023-01-21T15:19:10.338Z,89873.75
2023-01-21T15:21:42.850Z,89866.72
2023-01-21T15:24:18.679Z,89874.69
2023-01-21T15:27:16.638Z,89879.09
2023-01-21T15:29:55.349Z,89883.03
2023-01-21T15:32:34.808Z,89874.53
2023-01-21T15:35:15.087Z,89883.94
2023-01-21T15:37:46.491Z,89892.38
2023-01-21T15:40:29.284Z,89888.84
2023-01-21T15:43:02.018Z,89895.19
2023-01-21T15:45:41.300Z,89896.25
2023-01-21T15:48:45.592Z,89899.81
2023-01-21T15:51:12.600Z,89906.13
2023-01-21T15:54:04.061Z,89898.78
2023-01-21T15:56:41.199Z,89902.03
2023-01-21T15:59:18.257Z,89910.00
2023-01-21T16:01:52.449Z,89906.19
2023-01-21T16:04:33.195Z,89900.31
2023-01-21T16:07:31.063Z,89912.09
2023-01-21T16:10:09.695Z,89913.56
2023-01-21T16:12:47.441Z,89916.25
2023-01-21T16:15:32.918Z,89919.75
2023-01-21T16:18:26.132Z,89920.19
2023-01-21T16:20:56.479Z,89927.84
2023-01-21T16:23:26.984Z,89930.38
2023-01-21T16:25:54.863Z,89927.25
2023-01-21T16:28:21.808Z,89919.91
2023-01-21T16:30:57.678Z,89924.22
2023-01-21T16:33:25.067Z,89922.41
2023-01-21T16:35:55.023Z,89919.28
2023-01-21T16:38:27.656Z,89930.38
2023-01-21T16:41:20.313Z,89935.97
2023-01-21T16:43:50.300Z,89929.19
2023-01-21T16:46:20.875Z,89933.94
2023-01-21T16:48:53.738Z,89935.69
2023-01-21T16:51:23.520Z,89939.22
2023-01-21T16:53:53.437Z,89939.97
2023-01-21T16:56:29.284Z,89948.06
2023-01-21T16:58:56.737Z,89941.91
2023-01-21T17:01:26.789Z,89946.34
2023-01-21T17:03:55.003Z,89940.59
2023-01-21T17:06:26.844Z,89941.31
2023-01-21T17:09:03.324Z,89936.31
2023-01-21T17:11:30.320Z,89937.81
2023-01-21T17:14:01.778Z,89949.88
2023-01-21T17:16:35.084Z,89942.38
2023-01-21T17:19:08.445Z,89942.78
2023-01-21T17:21:47.881Z,89946.19
2023-01-21T17:24:22.744Z,89941.50
2023-01-21T17:26:52.601Z,89941.78
2023-01-21T17:29:31.538Z,89941.34
2023-01-21T17:32:07.183Z,89947.38
2023-01-21T17:34:36.517Z,89951.94
2023-01-21T17:37:30.690Z,89952.69
2023-01-21T17:39:59.763Z,89951.06
2023-01-21T17:42:31.502Z,89954.88
2023-01-21T17:45:04.003Z,89953.13
2023-01-21T17:47:34.219Z,89956.66
2023-01-21T17:50:03.904Z,89960.50
2023-01-21T17:52:31.477Z,89959.03
2023-01-21T17:55:17.135Z,89963.72
2023-01-21T17:57:44.177Z,89960.78
2023-01-21T18:00:29.832Z,89962.41
2023-01-21T18:02:58.174Z,89960.78
2023-01-21T18:05:25.128Z,89963.59
2023-01-21T18:07:52.343Z,89959.03
2023-01-21T18:10:24.435Z,89961.09
2023-01-21T18:12:52.127Z,89955.50
2023-01-21T18:15:19.229Z,89957.25
2023-01-21T18:17:49.580Z,89959.47
2023-01-21T18:20:22.072Z,89959.03
2023-01-21T18:22:50.968Z,89962.84
2023-01-21T18:25:19.286Z,89963.13
2023-01-21T18:27:48.416Z,89966.97
2023-01-21T18:30:19.669Z,89968.44
2023-01-21T18:32:46.888Z,89961.38
2023-01-21T18:35:20.695Z,89970.19
2023-01-21T18:37:47.605Z,89969.91
2023-01-21T18:40:16.539Z,89963.00
2023-01-21T18:42:47.337Z,89972.84
2023-01-21T18:45:20.053Z,89969.84
2023-01-21T18:47:49.822Z,89970.94
2023-01-21T18:50:26.169Z,89969.56
2023-01-21T18:52:53.309Z,89973.41
2023-01-21T18:55:21.337Z,89976.66
2023-01-21T18:57:50.474Z,89973.19
2023-01-21T19:00:26.818Z,89969.50
2023-01-21T19:02:55.097Z,89968.66
2023-01-21T19:05:27.718Z,89972.75
2023-01-21T19:07:54.702Z,89974.09
2023-01-21T19:10:21.576Z,89975.47
2023-01-21T19:12:48.896Z,89975.94
2023-01-21T19:15:18.540Z,89984.06
2023-01-21T19:17:45.583Z,89977.44
2023-01-21T19:20:27.113Z,89988.66
2023-01-21T19:22:55.286Z,89979.97
2023-01-21T19:25:24.690Z,89981.59
2023-01-21T19:27:54.498Z,89981.84
2023-01-21T19:30:30.465Z,89981.97
2023-01-21T19:32:59.223Z,89972.97
2023-01-21T19:35:34.078Z,89973.41
2023-01-21T19:38:03.730Z,89970.47
2023-01-21T19:40:31.146Z,89969.00
2023-01-21T19:42:58.166Z,89965.16
2023-01-21T19:45:28.386Z,89970.28
2023-01-21T19:47:55.960Z,89969.03
2023-01-21T19:50:26.108Z,89971.38
2023-01-21T19:52:54.798Z,89963.75
2023-01-21T19:55:24.468Z,89966.34
2023-01-21T19:58:02.155Z,89968.41
2023-01-21T20:00:31.389Z,89970.16
2023-01-21T20:03:09.386Z,89970.59
2023-01-21T20:05:36.358Z,89976.22
2023-01-21T20:08:04.936Z,89978.28
2023-01-21T20:10:32.037Z,89979.16
2023-01-21T20:12:58.971Z,89983.47
2023-01-21T20:15:31.271Z,89986.94
2023-01-21T20:18:01.054Z,89986.56
2023-01-21T20:20:30.600Z,89993.03
2023-01-21T20:22:58.750Z,89992.16
2023-01-21T20:25:31.918Z,89984.41
2023-01-21T20:28:00.576Z,89986.44
2023-01-21T20:30:32.558Z,89988.66
2023-01-21T20:32:59.781Z,89987.06
2023-01-21T20:35:27.108Z,89986.19
2023-01-21T20:37:56.335Z,89984.16
2023-01-21T20:40:25.700Z,89977.97
2023-01-21T20:42:53.738Z,89978.47
2023-01-21T20:45:27.078Z,89982.81
2023-01-21T20:47:56.745Z,89985.84
2023-01-21T20:50:28.044Z,89979.00
2023-01-21T20:52:55.204Z,89977.91
2023-01-21T20:55:25.616Z,89975.81
2023-01-21T20:57:52.989Z,89980.84
2023-01-21T21:00:32.499Z,89985.03
2023-01-21T21:02:59.629Z,89985.75
2023-01-21T21:05:27.901Z,89986.56
2023-01-21T21:07:55.509Z,89989.41
2023-01-21T21:10:32.698Z,89985.84
2023-01-21T21:13:00.490Z,89984.22
2023-01-21T21:15:28.803Z,89975.88
2023-01-21T21:17:55.771Z,89988.75
2023-01-21T21:20:31.391Z,89979.78
2023-01-21T21:22:58.609Z,89982.72
2023-01-21T21:25:31.635Z,89987.91
2023-01-21T21:27:59.334Z,89986.03
2023-01-21T21:30:32.039Z,89981.59
2023-01-21T21:33:00.744Z,89974.38
2023-01-21T21:35:35.422Z,89988.28
2023-01-21T21:38:20.877Z,89979.34
2023-01-21T21:40:48.363Z,89983.56
2023-01-21T21:43:19.573Z,89980.06
2023-01-21T21:45:46.743Z,89981.31
2023-01-21T21:48:24.093Z,89984.47
2023-01-21T21:50:57.978Z,89980.59
2023-01-21T21:53:24.982Z,89983.94
2023-01-21T21:55:52.029Z,89981.06
2023-01-21T21:58:19.081Z,89971.66
2023-01-21T22:00:46.140Z,89983.78
2023-01-21T22:03:13.180Z,89978.31
2023-01-21T22:05:40.088Z,89973.31
2023-01-21T22:08:07.175Z,89982.94
2023-01-21T22:10:34.103Z,89977.56
2023-01-21T22:13:01.061Z,89972.59
2023-01-21T22:15:28.019Z,89986.53
2023-01-21T22:17:55.524Z,89976.41
2023-01-21T22:20:22.500Z,89979.59
2023-01-21T22:22:49.512Z,89977.34
2023-01-21T22:25:16.833Z,89977.16
2023-01-21T22:27:45.581Z,89980.00
2023-01-21T22:30:12.988Z,89982.66
2023-01-21T22:32:39.911Z,89975.78
2023-01-21T22:35:07.315Z,89980.88
2023-01-21T22:37:34.262Z,89981.78
2023-01-21T22:40:01.332Z,89979.78
2023-01-21T22:42:31.973Z,89980.88
2023-01-21T22:45:00.075Z,89983.38
2023-01-21T22:47:26.952Z,89979.38
2023-01-21T22:49:53.863Z,89982.63
2023-01-21T22:52:20.652Z,89984.44
2023-01-21T22:54:49.498Z,89984.56
2023-01-21T22:57:17.138Z,89981.28
2023-01-21T22:59:43.972Z,89984.13
2023-01-21T23:02:10.793Z,89988.13
2023-01-21T23:04:38.116Z,89982.84
2023-01-21T23:07:04.952Z,89981.38
2023-01-21T23:09:31.869Z,89993.50
2023-01-21T23:11:58.702Z,89997.97
2023-01-21T23:14:25.754Z,89992.47
2023-01-21T23:16:53.188Z,89989.50
2023-01-21T23:19:20.170Z,89992.03
2023-01-21T23:21:47.053Z,89994.13
2023-01-21T23:24:13.925Z,89995.84
2023-01-21T23:26:40.790Z,89990.75
2023-01-21T23:29:07.763Z,89990.97
2023-01-21T23:31:34.827Z,89994.66
2023-01-21T23:34:01.750Z,89993.00
2023-01-21T23:36:28.661Z,89996.69
2023-01-21T23:38:55.480Z,89989.72
2023-01-21T23:41:22.323Z,89998.78
2023-01-21T23:43:49.329Z,90003.00
2023-01-21T23:46:17.867Z,90002.84
2023-01-21T23:48:44.695Z,89999.53
2023-01-21T23:51:13.644Z,90006.13
2023-01-21T23:53:40.675Z,90003.84
2023-01-21T23:56:10.974Z,90007.59
2023-01-21T23:58:37.928Z,90001.41
